Time;durP1;ratioP1;P1;durP2;ratioP2;P2;SDS_P1;SDS_P2;PMS_P1;PMS_P2;Temp;Humidity;BMP_temperature;BMP_pressure;BME280_temperature;BME280_humidity;BME280_pressure;Samples;Min_cycle;Max_cycle;Signal;HPM_P1;HPM_P2
2021/03/25 05:33:35;;;;;;;14.93;9.48;;;;;;;;;;5292165;23;20300;-80
2021/03/25 05:36:05;;;;;;;16.27;10.02;;;;;;;;;;4968087;28;20262;-79
2021/03/25 05:38:31;;;;;;;11.30;8.98;;;;;;;;;;4958194;28;20275;-81
2021/03/25 05:41:03;;;;;;;13.95;10.07;;;;;;;;;;4951578;28;20649;-76
2021/03/25 05:43:35;;;;;;;17.25;9.85;;;;;;;;;;4972368;28;20223;-79
2021/03/25 05:46:10;;;;;;;18.95;9.85;;;;;;;;;;4973086;28;20581;-78
2021/03/25 05:48:55;;;;;;;14.30;10.50;;;;;;;;;;4970933;28;20221;-76
2021/03/25 05:51:39;;;;;;;19.38;10.43;;;;;;;;;;4972750;28;20180;-79
2021/03/25 05:54:24;;;;;;;13.93;9.68;;;;;;;;;;4973317;28;20190;-82
2021/03/25 05:57:03;;;;;;;15.40;8.73;;;;;;;;;;4970684;28;20631;-83
2021/03/25 05:59:34;;;;;;;10.82;8.30;;;;;;;;;;4957221;28;20578;-83
2021/03/25 06:02:05;;;;;;;12.88;9.80;;;;;;;;;;4962676;28;20185;-82
2021/03/25 06:04:32;;;;;;;12.50;9.82;;;;;;;;;;4953141;28;20218;-80
2021/03/25 06:07:04;;;;;;;16.48;9.50;;;;;;;;;;4963896;28;20172;-83
2021/03/25 06:09:49;;;;;;;11.90;8.93;;;;;;;;;;4975627;28;20292;-84
2021/03/25 06:12:28;;;;;;;13.45;8.93;;;;;;;;;;4975807;28;20176;-85
2021/03/25 06:15:03;;;;;;;10.65;9.50;;;;;;;;;;4975553;28;20511;-82
2021/03/25 06:17:38;;;;;;;15.32;9.40;;;;;;;;;;4976571;28;20507;-83
2021/03/25 06:20:25;;;;;;;13.88;9.75;;;;;;;;;;4974960;28;20184;-84
2021/03/25 06:23:24;;;;;;;19.58;10.15;;;;;;;;;;4975373;28;20204;-82
2021/03/25 06:26:08;;;;;;;13.45;10.18;;;;;;;;;;4933004;28;20207;-82
2021/03/25 06:28:36;;;;;;;20.63;10.60;;;;;;;;;;4975616;28;20172;-81
2021/03/25 06:31:25;;;;;;;16.83;11.90;;;;;;;;;;4974730;28;20184;-83
2021/03/25 06:33:54;;;;;;;19.50;9.50;;;;;;;;;;4957499;28;20305;-81
2021/03/25 06:36:21;;;;;;;21.38;11.32;;;;;;;;;;4975249;28;20703;-82
2021/03/25 06:38:51;;;;;;;15.80;11.30;;;;;;;;;;4974649;28;20180;-82
2021/03/25 06:41:26;;;;;;;14.55;11.70;;;;;;;;;;4975521;28;20190;-82
2021/03/25 06:43:52;;;;;;;14.27;10.30;;;;;;;;;;4975304;28;20214;-82
2021/03/25 06:46:29;;;;;;;18.50;11.40;;;;;;;;;;4975431;28;20180;-81
2021/03/25 06:49:00;;;;;;;17.77;11.07;;;;;;;;;;4969648;28;20446;-82
2021/03/25 06:51:29;;;;;;;21.57;11.20;;;;;;;;;;4971802;28;20380;-83
2021/03/25 06:54:33;;;;;;;17.37;10.47;;;;;;;;;;4977068;28;20521;-80
2021/03/25 06:57:01;;;;;;;22.10;10.57;;;;;;;;;;4902077;29;20450;-82
2021/03/25 06:59:29;;;;;;;16.97;9.77;;;;;;;;;;4901315;29;20557;-80
2021/03/25 07:02:01;;;;;;;19.83;9.93;;;;;;;;;;4892350;29;20450;-81
2021/03/25 07:04:32;;;;;;;21.10;10.63;;;;;;;;;;4891352;29;20530;-82
2021/03/25 07:07:04;;;;;;;14.73;10.57;;;;;;;;;;4893152;29;20452;-81
2021/03/25 07:09:31;;;;;;;21.63;10.10;;;;;;;;;;4890858;29;20468;-81
2021/03/25 07:11:58;;;;;;;17.13;10.37;;;;;;;;;;4889617;29;20472;-81
2021/03/25 07:14:36;;;;;;;22.27;10.10;;;;;;;;;;4890578;29;20456;-82
2021/03/25 07:17:03;;;;;;;14.47;10.20;;;;;;;;;;4892308;29;20445;-83
2021/03/25 07:19:33;;;;;;;15.43;10.40;;;;;;;;;;4891446;29;20971;-83
2021/03/25 07:22:19;;;;;;;18.60;10.43;;;;;;;;;;4890979;29;20480;-82
2021/03/25 07:24:45;;;;;;;15.17;10.30;;;;;;;;;;4887978;29;20502;-82
2021/03/25 07:27:11;;;;;;;20.70;10.97;;;;;;;;;;4911446;28;20461;-82
2021/03/25 07:29:38;;;;;;;20.63;9.83;;;;;;;;;;4970564;28;20458;-83
2021/03/25 07:32:08;;;;;;;12.63;9.07;;;;;;;;;;4969644;28;20462;-81
2021/03/25 07:34:34;;;;;;;18.87;10.80;;;;;;;;;;4970355;28;20573;-83
2021/03/25 07:37:02;;;;;;;16.80;10.50;;;;;;;;;;4971151;28;20446;-81
2021/03/25 07:39:33;;;;;;;17.40;9.33;;;;;;;;;;4969946;28;20448;-80
2021/03/25 07:42:00;;;;;;;13.97;9.60;;;;;;;;;;4968482;28;20873;-80
2021/03/25 07:44:35;;;;;;;23.23;9.47;;;;;;;;;;4967559;28;20565;-79
2021/03/25 07:47:03;;;;;;;16.17;8.33;;;;;;;;;;4966324;28;20525;-80
2021/03/25 07:49:30;;;;;;;17.03;8.47;;;;;;;;;;4961076;28;20469;-82
2021/03/25 07:52:02;;;;;;;11.60;9.20;;;;;;;;;;4976155;28;20454;-83
2021/03/25 07:54:36;;;;;;;10.70;6.67;;;;;;;;;;4982509;28;21010;-83
2021/03/25 07:57:04;;;;;;;7.63;6.53;;;;;;;;;;4980770;28;20458;-85
2021/03/25 07:59:33;;;;;;;8.50;7.00;;;;;;;;;;4980715;28;20457;-81
2021/03/25 08:01:59;;;;;;;12.03;7.13;;;;;;;;;;4978096;28;20887;-81
2021/03/25 08:04:27;;;;;;;14.70;9.00;;;;;;;;;;4974325;28;20490;-83
2021/03/25 08:07:11;;;;;;;11.40;8.37;;;;;;;;;;4967059;28;20434;-84
2021/03/25 08:09:57;;;;;;;15.70;10.10;;;;;;;;;;4967359;28;20540;-81
2021/03/25 08:12:36;;;;;;;15.87;10.17;;;;;;;;;;4966666;28;20468;-83
2021/03/25 08:15:08;;;;;;;19.23;9.63;;;;;;;;;;4949533;28;20457;-83
2021/03/25 08:17:34;;;;;;;13.67;8.43;;;;;;;;;;4966452;28;20442;-83
2021/03/25 08:20:05;;;;;;;14.23;9.00;;;;;;;;;;4965919;28;20461;-84
2021/03/25 08:22:47;;;;;;;11.80;8.40;;;;;;;;;;4966178;28;20439;-79
2021/03/25 08:25:13;;;;;;;6.60;5.37;;;;;;;;;;4967951;28;20434;-81
2021/03/25 08:27:46;;;;;;;5.97;5.03;;;;;;;;;;4968357;28;20963;-77
2021/03/25 08:30:27;;;;;;;11.20;7.10;;;;;;;;;;4968826;28;20474;-82
2021/03/25 08:33:03;;;;;;;11.20;8.23;;;;;;;;;;4969200;28;20478;-81
2021/03/25 08:35:33;;;;;;;10.10;7.90;;;;;;;;;;4966811;28;20466;-80
2021/03/25 08:38:37;;;;;;;13.10;7.53;;;;;;;;;;4968839;28;20984;-81
2021/03/25 08:41:06;;;;;;;10.17;4.73;;;;;;;;;;4870764;29;20459;-79
2021/03/25 08:43:43;;;;;;;9.37;7.03;;;;;;;;;;4872669;29;20498;-79
2021/03/25 08:46:14;;;;;;;14.17;8.67;;;;;;;;;;4924926;28;20446;-80
2021/03/25 08:48:47;;;;;;;11.50;8.70;;;;;;;;;;4965907;28;20461;-79
2021/03/25 08:51:15;;;;;;;8.77;4.90;;;;;;;;;;4964900;28;20917;-78
2021/03/25 08:53:45;;;;;;;9.40;7.03;;;;;;;;;;4965232;28;20454;-79
2021/03/25 08:56:40;;;;;;;14.53;7.43;;;;;;;;;;4965858;28;20454;-80
2021/03/25 08:59:20;;;;;;;10.50;8.03;;;;;;;;;;4953592;28;20537;-79
2021/03/25 09:02:09;;;;;;;9.23;7.70;;;;;;;;;;4965906;28;20482;-77
2021/03/25 09:04:38;;;;;;;16.03;8.37;;;;;;;;;;4954177;28;20486;-75
2021/03/25 09:07:05;;;;;;;10.07;8.07;;;;;;;;;;4965549;28;20518;-76
2021/03/25 09:09:31;;;;;;;18.50;8.80;;;;;;;;;;4964854;28;20556;-74
2021/03/25 09:11:58;;;;;;;15.47;8.43;;;;;;;;;;4966703;28;20891;-76
2021/03/25 09:14:25;;;;;;;16.80;8.83;;;;;;;;;;4966768;28;20477;-77
2021/03/25 09:16:52;;;;;;;9.77;8.13;;;;;;;;;;4966315;28;21368;-76
2021/03/25 09:19:24;;;;;;;8.73;6.40;;;;;;;;;;4966656;28;20537;-76
2021/03/25 09:21:55;;;;;;;8.40;6.80;;;;;;;;;;4965807;28;20448;-75
2021/03/25 09:24:21;;;;;;;6.90;5.93;;;;;;;;;;4966268;28;21000;-74
2021/03/25 09:27:00;;;;;;;6.10;5.50;;;;;;;;;;4966004;28;20449;-74
2021/03/25 09:29:28;;;;;;;7.23;5.90;;;;;;;;;;4965640;28;20446;-76
2021/03/25 09:31:57;;;;;;;9.03;5.87;;;;;;;;;;4969182;28;20442;-75
2021/03/25 09:34:23;;;;;;;8.27;6.90;;;;;;;;;;4965628;28;20904;-76
2021/03/25 09:36:59;;;;;;;14.13;7.77;;;;;;;;;;4965342;28;20462;-77
2021/03/25 09:39:38;;;;;;;11.13;7.07;;;;;;;;;;4966153;28;20446;-78
2021/03/25 09:42:16;;;;;;;11.17;6.60;;;;;;;;;;4969174;28;20442;-75
2021/03/25 09:44:42;;;;;;;7.47;6.40;;;;;;;;;;4968108;28;20474;-76
2021/03/25 09:47:11;;;;;;;7.33;5.63;;;;;;;;;;4971727;28;20442;-75
2021/03/25 09:49:43;;;;;;;9.03;6.40;;;;;;;;;;4971812;28;20482;-76
2021/03/25 09:52:10;;;;;;;8.50;6.27;;;;;;;;;;4969612;28;21383;-76
2021/03/25 09:54:37;;;;;;;7.40;6.27;;;;;;;;;;4971686;28;20456;-74
2021/03/25 09:57:17;;;;;;;9.03;6.50;;;;;;;;;;4969048;28;20462;-76
2021/03/25 09:59:47;;;;;;;7.37;5.63;;;;;;;;;;4970271;28;20446;-74
2021/03/25 10:02:13;;;;;;;6.00;5.20;;;;;;;;;;4950782;28;20465;-77
2021/03/25 10:04:40;;;;;;;8.03;6.70;;;;;;;;;;4968494;28;20559;-75
2021/03/25 10:07:06;;;;;;;10.60;6.33;;;;;;;;;;4969118;28;20434;-75
2021/03/25 10:09:50;;;;;;;8.40;5.70;;;;;;;;;;4968354;28;20454;-76
2021/03/25 10:12:35;;;;;;;8.67;6.30;;;;;;;;;;4968637;28;20492;-77
2021/03/25 10:15:01;;;;;;;8.90;7.07;;;;;;;;;;4951491;28;20956;-76
2021/03/25 10:17:47;;;;;;;15.40;6.70;;;;;;;;;;4968992;28;20442;-76
2021/03/25 10:20:33;;;;;;;7.70;6.43;;;;;;;;;;4950639;28;20516;-75
2021/03/25 10:22:59;;;;;;;6.80;5.97;;;;;;;;;;4968792;28;20570;-76
2021/03/25 10:25:28;;;;;;;9.40;6.40;;;;;;;;;;4968391;28;20458;-78
2021/03/25 10:27:58;;;;;;;8.30;6.27;;;;;;;;;;4951346;28;20920;-76
2021/03/25 10:30:29;;;;;;;7.90;4.83;;;;;;;;;;4968021;28;20921;-75
2021/03/25 10:32:55;;;;;;;6.80;5.30;;;;;;;;;;4968032;28;20438;-79
2021/03/25 10:35:32;;;;;;;9.83;5.70;;;;;;;;;;4969152;28;20447;-76
2021/03/25 10:38:03;;;;;;;9.20;5.90;;;;;;;;;;4970769;28;20505;-77
2021/03/25 10:40:35;;;;;;;6.83;6.00;;;;;;;;;;4971042;28;20521;-76
2021/03/25 10:43:03;;;;;;;7.20;5.60;;;;;;;;;;4967770;28;20490;-77
2021/03/25 10:45:36;;;;;;;6.77;5.33;;;;;;;;;;4968945;28;20447;-77
2021/03/25 10:48:04;;;;;;;7.33;5.53;;;;;;;;;;4967908;28;20523;-77
2021/03/25 10:50:39;;;;;;;11.63;4.53;;;;;;;;;;4968092;28;20781;-76
2021/03/25 10:53:07;;;;;;;9.77;5.80;;;;;;;;;;4966838;28;20537;-78
2021/03/25 10:55:38;;;;;;;5.23;4.50;;;;;;;;;;4968323;28;20482;-77
2021/03/25 10:58:05;;;;;;;11.13;5.50;;;;;;;;;;4969297;28;20490;-77
2021/03/25 11:00:37;;;;;;;5.97;5.27;;;;;;;;;;4970992;28;20974;-78
2021/03/25 11:03:17;;;;;;;6.93;4.40;;;;;;;;;;4967781;28;20536;-78
2021/03/25 11:05:51;;;;;;;6.83;4.10;;;;;;;;;;4950071;28;20486;-77
2021/03/25 11:08:30;;;;;;;10.00;4.80;;;;;;;;;;4967923;28;20442;-74
2021/03/25 11:10:56;;;;;;;10.37;5.33;;;;;;;;;;4967308;28;20954;-77
2021/03/25 11:13:24;;;;;;;8.27;5.50;;;;;;;;;;4967710;28;20525;-77
2021/03/25 11:15:56;;;;;;;6.70;6.00;;;;;;;;;;4967591;28;20462;-75
2021/03/25 11:18:24;;;;;;;10.70;6.77;;;;;;;;;;4950024;28;21300;-78
2021/03/25 11:20:51;;;;;;;12.50;6.33;;;;;;;;;;4967684;28;20537;-77
2021/03/25 11:23:19;;;;;;;7.23;6.17;;;;;;;;;;4965189;28;20491;-77
2021/03/25 11:25:45;;;;;;;7.10;5.60;;;;;;;;;;4967713;28;20453;-77
2021/03/25 11:28:13;;;;;;;6.70;5.53;;;;;;;;;;4967714;28;20465;-77
2021/03/25 11:30:42;;;;;;;6.47;5.13;;;;;;;;;;4965332;28;20454;-75
2021/03/25 11:33:27;;;;;;;6.97;6.23;;;;;;;;;;4968688;28;20474;-75
2021/03/25 11:35:54;;;;;;;8.37;6.60;;;;;;;;;;4966239;28;20453;-77
2021/03/25 11:38:30;;;;;;;6.77;5.67;;;;;;;;;;4965952;28;20437;-77
2021/03/25 11:41:01;;;;;;;5.60;4.83;;;;;;;;;;4966781;28;20450;-76
2021/03/25 11:43:44;;;;;;;7.40;5.40;;;;;;;;;;4968567;28;20474;-76
2021/03/25 11:46:11;;;;;;;6.83;5.30;;;;;;;;;;4965924;28;20460;-76
2021/03/25 11:48:39;;;;;;;6.50;5.83;;;;;;;;;;4964546;28;21153;-76
2021/03/25 11:51:17;;;;;;;7.57;5.57;;;;;;;;;;4966059;28;20454;-74
2021/03/25 11:53:43;;;;;;;6.93;5.33;;;;;;;;;;4965442;28;20446;-76
2021/03/25 11:56:23;;;;;;;9.03;5.50;;;;;;;;;;4967020;28;20455;-76
2021/03/25 11:58:55;;;;;;;9.20;5.73;;;;;;;;;;4949238;28;20466;-75
2021/03/25 12:01:21;;;;;;;7.60;5.10;;;;;;;;;;4966713;28;20479;-77
2021/03/25 12:03:55;;;;;;;5.87;5.27;;;;;;;;;;4965913;28;20485;-77
2021/03/25 12:06:39;;;;;;;7.27;5.10;;;;;;;;;;4952904;28;20441;-77
2021/03/25 12:09:10;;;;;;;6.80;5.20;;;;;;;;;;4965041;28;20442;-76
2021/03/25 12:11:37;;;;;;;7.40;4.90;;;;;;;;;;4969133;28;20449;-78
2021/03/25 12:14:04;;;;;;;7.70;5.60;;;;;;;;;;4970906;28;20859;-76
2021/03/25 12:16:30;;;;;;;8.50;5.93;;;;;;;;;;4969223;28;20525;-77
2021/03/25 12:18:57;;;;;;;6.20;5.00;;;;;;;;;;4966887;28;20837;-75
2021/03/25 12:21:23;;;;;;;7.60;5.33;;;;;;;;;;4968054;28;20533;-77
2021/03/25 12:23:53;;;;;;;6.97;5.53;;;;;;;;;;4971017;28;20556;-77
2021/03/25 12:26:19;;;;;;;7.73;5.30;;;;;;;;;;4970574;28;20434;-76
2021/03/25 12:28:45;;;;;;;5.83;5.10;;;;;;;;;;4971941;28;20446;-77
2021/03/25 12:31:15;;;;;;;7.40;4.20;;;;;;;;;;4973816;28;20521;-78
2021/03/25 12:33:41;;;;;;;6.00;5.10;;;;;;;;;;4970581;28;20996;-77
2021/03/25 12:36:08;;;;;;;6.33;5.70;;;;;;;;;;4970798;28;20466;-78
2021/03/25 12:38:34;;;;;;;6.20;5.53;;;;;;;;;;4973099;28;20461;-78
2021/03/25 12:41:00;;;;;;;6.87;4.57;;;;;;;;;;4970894;28;20446;-80
2021/03/25 12:43:27;;;;;;;6.43;5.10;;;;;;;;;;4971161;28;20680;-81
2021/03/25 12:45:57;;;;;;;14.60;5.33;;;;;;;;;;4970468;28;20442;-80
2021/03/25 12:48:27;;;;;;;8.13;4.93;;;;;;;;;;4969944;28;20508;-78
2021/03/25 12:50:53;;;;;;;11.67;5.60;;;;;;;;;;4969588;28;20773;-79
2021/03/25 12:53:22;;;;;;;7.80;6.27;;;;;;;;;;4970126;28;20593;-76
2021/03/25 12:55:48;;;;;;;9.70;5.53;;;;;;;;;;4970330;28;20446;-77
2021/03/25 12:58:18;;;;;;;6.63;5.27;;;;;;;;;;4970715;28;20535;-80
2021/03/25 13:00:45;;;;;;;7.20;5.33;;;;;;;;;;4970681;28;20541;-81
2021/03/25 13:03:11;;;;;;;5.97;5.30;;;;;;;;;;4969900;28;20893;-79
2021/03/25 13:05:37;;;;;;;6.87;6.00;;;;;;;;;;4970622;28;21200;-78
2021/03/25 13:08:03;;;;;;;6.10;5.23;;;;;;;;;;4970073;28;20477;-85
2021/03/25 13:10:30;;;;;;;9.17;6.47;;;;;;;;;;4954067;28;20439;-80
2021/03/25 13:12:59;;;;;;;6.37;5.77;;;;;;;;;;4970475;28;20473;-78
2021/03/25 13:15:26;;;;;;;8.80;6.17;;;;;;;;;;4971910;28;20454;-80
2021/03/25 13:17:52;;;;;;;9.53;6.33;;;;;;;;;;4974937;28;20545;-79
2021/03/25 13:20:20;;;;;;;9.30;5.70;;;;;;;;;;4974179;28;20453;-80
2021/03/25 13:22:46;;;;;;;10.30;5.60;;;;;;;;;;4974240;28;20461;-80
2021/03/25 13:25:17;;;;;;;8.57;6.40;;;;;;;;;;4974189;28;20461;-82
2021/03/25 13:27:43;;;;;;;11.00;6.43;;;;;;;;;;4975076;28;20525;-81
2021/03/25 13:30:09;;;;;;;19.13;7.33;;;;;;;;;;4976036;28;21027;-80
2021/03/25 13:32:35;;;;;;;9.43;6.53;;;;;;;;;;4974446;28;20548;-80
2021/03/25 13:35:02;;;;;;;8.33;7.43;;;;;;;;;;4973337;28;20576;-79
2021/03/25 13:37:28;;;;;;;14.53;6.07;;;;;;;;;;4974891;28;20438;-79
2021/03/25 13:39:54;;;;;;;10.00;7.33;;;;;;;;;;4973018;28;20891;-79
2021/03/25 13:42:21;;;;;;;8.90;7.90;;;;;;;;;;4973567;28;20631;-81
2021/03/25 13:44:47;;;;;;;8.00;7.00;;;;;;;;;;4974001;28;20847;-76
2021/03/25 13:47:13;;;;;;;12.17;6.97;;;;;;;;;;4974423;28;20446;-78
2021/03/25 13:49:39;;;;;;;10.20;6.77;;;;;;;;;;4972986;28;20963;-80
2021/03/25 13:52:05;;;;;;;12.10;7.43;;;;;;;;;;4973667;28;20454;-77
2021/03/25 13:54:32;;;;;;;11.20;6.30;;;;;;;;;;4974301;28;20476;-77
2021/03/25 13:56:59;;;;;;;8.53;6.10;;;;;;;;;;4973677;28;20483;-77
2021/03/25 13:59:25;;;;;;;9.83;6.77;;;;;;;;;;4972166;28;20430;-79
2021/03/25 14:01:54;;;;;;;9.30;6.43;;;;;;;;;;4972598;28;20493;-82
2021/03/25 14:04:26;;;;;;;14.47;6.97;;;;;;;;;;4954416;28;21087;-80
2021/03/25 14:06:52;;;;;;;9.90;6.30;;;;;;;;;;4953768;28;20601;-80
2021/03/25 14:09:18;;;;;;;9.83;7.20;;;;;;;;;;4968717;28;20532;-80
2021/03/25 14:11:44;;;;;;;8.30;6.33;;;;;;;;;;4974996;28;21121;-80
2021/03/25 14:14:10;;;;;;;11.93;6.23;;;;;;;;;;4954768;28;20961;-79
2021/03/25 14:16:39;;;;;;;7.63;6.13;;;;;;;;;;4968703;28;20526;-82
2021/03/25 14:19:06;;;;;;;8.97;6.07;;;;;;;;;;4967865;28;20457;-80
2021/03/25 14:21:32;;;;;;;10.90;6.60;;;;;;;;;;4970460;28;20541;-81
2021/03/25 14:23:58;;;;;;;6.90;5.43;;;;;;;;;;4969872;28;20478;-86
2021/03/25 14:26:24;;;;;;;9.77;7.60;;;;;;;;;;4968178;28;20462;-82
2021/03/25 14:28:50;;;;;;;10.50;7.00;;;;;;;;;;4951693;28;20812;-81
2021/03/25 14:31:18;;;;;;;9.53;6.10;;;;;;;;;;4968134;28;20450;-81
2021/03/25 14:33:44;;;;;;;9.30;6.10;;;;;;;;;;4967992;28;20497;-79
2021/03/25 14:36:11;;;;;;;7.83;5.80;;;;;;;;;;4968366;28;20481;-77
2021/03/25 14:38:37;;;;;;;8.60;5.73;;;;;;;;;;4970164;28;20851;-82
2021/03/25 14:41:03;;;;;;;6.67;5.97;;;;;;;;;;4970267;28;20438;-82
2021/03/25 14:43:29;;;;;;;18.50;6.77;;;;;;;;;;4971089;28;20478;-82
2021/03/25 14:45:56;;;;;;;9.10;6.67;;;;;;;;;;4970911;28;20450;-76
2021/03/25 14:48:23;;;;;;;6.93;5.53;;;;;;;;;;4971603;28;20524;-78
2021/03/25 14:50:49;;;;;;;7.90;6.07;;;;;;;;;;4970446;28;20443;-79
2021/03/25 14:53:15;;;;;;;10.07;6.60;;;;;;;;;;4971307;28;20438;-79
2021/03/25 14:55:42;;;;;;;10.03;6.10;;;;;;;;;;4971795;28;20457;-81
2021/03/25 14:58:08;;;;;;;8.23;5.97;;;;;;;;;;4971958;28;20461;-80
2021/03/25 15:00:41;;;;;;;9.70;5.13;;;;;;;;;;4970746;28;20485;-81
2021/03/25 15:03:07;;;;;;;10.93;6.90;;;;;;;;;;4970623;28;20486;-83
2021/03/25 15:05:33;;;;;;;10.37;5.90;;;;;;;;;;4971190;28;20942;-84
2021/03/25 15:07:59;;;;;;;9.53;6.50;;;;;;;;;;4970713;28;20454;-82
2021/03/25 15:10:27;;;;;;;16.43;7.47;;;;;;;;;;4970719;28;20434;-83
2021/03/25 15:12:53;;;;;;;11.77;6.57;;;;;;;;;;4970751;28;20839;-80
2021/03/25 15:15:21;;;;;;;13.90;7.40;;;;;;;;;;4972494;28;20455;-78
2021/03/25 15:17:47;;;;;;;12.23;7.73;;;;;;;;;;4970359;28;20933;-78
2021/03/25 15:20:14;;;;;;;9.33;6.97;;;;;;;;;;4969752;28;20943;-76
2021/03/25 15:22:40;;;;;;;14.03;7.47;;;;;;;;;;4970965;28;20442;-80
2021/03/25 15:25:08;;;;;;;13.63;8.07;;;;;;;;;;4969082;28;20462;-79
2021/03/25 15:27:34;;;;;;;16.00;7.17;;;;;;;;;;4972734;28;20493;-80
2021/03/25 15:30:00;;;;;;;15.07;6.90;;;;;;;;;;4970406;28;20446;-80
2021/03/25 15:32:26;;;;;;;14.50;7.50;;;;;;;;;;4953879;28;20446;-78
2021/03/25 15:34:52;;;;;;;12.00;7.37;;;;;;;;;;4970242;28;20513;-78
2021/03/25 15:37:18;;;;;;;9.63;6.83;;;;;;;;;;4970751;28;20438;-79
2021/03/25 15:39:44;;;;;;;9.47;7.20;;;;;;;;;;4970410;28;20493;-78
2021/03/25 15:42:10;;;;;;;9.53;7.23;;;;;;;;;;4970525;28;20466;-78
2021/03/25 15:44:36;;;;;;;16.30;7.70;;;;;;;;;;4970557;28;20833;-77
2021/03/25 15:47:02;;;;;;;12.50;7.83;;;;;;;;;;4970886;28;20577;-79
2021/03/25 15:49:28;;;;;;;16.40;9.37;;;;;;;;;;4968688;28;20865;-79
2021/03/25 15:51:55;;;;;;;10.97;7.17;;;;;;;;;;4970589;28;20484;-78
2021/03/25 15:54:20;;;;;;;10.30;7.40;;;;;;;;;;4969907;28;20470;-77
2021/03/25 15:56:46;;;;;;;10.57;7.27;;;;;;;;;;4952697;28;20474;-80
2021/03/25 15:59:12;;;;;;;13.67;7.03;;;;;;;;;;4970302;28;20458;-77
2021/03/25 16:01:38;;;;;;;9.90;6.77;;;;;;;;;;4971974;28;20449;-81
2021/03/25 16:04:05;;;;;;;13.93;7.83;;;;;;;;;;4970089;28;20489;-83
2021/03/25 16:06:30;;;;;;;14.23;6.53;;;;;;;;;;4970969;28;20438;-82
2021/03/25 16:08:57;;;;;;;14.37;7.20;;;;;;;;;;4969541;28;20461;-82
2021/03/25 16:11:24;;;;;;;7.40;5.77;;;;;;;;;;4971914;28;20435;-82
2021/03/25 16:13:50;;;;;;;12.23;6.47;;;;;;;;;;4972830;28;20537;-81
2021/03/25 16:16:16;;;;;;;15.17;6.60;;;;;;;;;;4971037;28;20955;-81
2021/03/25 16:18:41;;;;;;;8.50;6.43;;;;;;;;;;4972024;28;20450;-81
2021/03/25 16:21:08;;;;;;;6.77;5.87;;;;;;;;;;4971260;28;20849;-81
2021/03/25 16:23:37;;;;;;;8.80;7.00;;;;;;;;;;4971008;28;20569;-81
2021/03/25 16:26:06;;;;;;;9.27;5.57;;;;;;;;;;4970287;28;20573;-79
2021/03/25 16:28:32;;;;;;;10.03;7.47;;;;;;;;;;4954762;28;20992;-79
2021/03/25 16:30:59;;;;;;;10.70;6.20;;;;;;;;;;4968659;28;20983;-82
2021/03/25 16:33:25;;;;;;;11.90;6.17;;;;;;;;;;4969428;28;20500;-81
2021/03/25 16:35:51;;;;;;;8.10;5.73;;;;;;;;;;4970271;28;20442;-82
2021/03/25 16:38:19;;;;;;;6.20;5.13;;;;;;;;;;4970131;28;20450;-79
2021/03/25 16:40:45;;;;;;;9.57;5.70;;;;;;;;;;4969546;28;20505;-80
2021/03/25 16:43:14;;;;;;;6.70;4.80;;;;;;;;;;4970109;28;20897;-82
2021/03/25 16:45:42;;;;;;;6.40;5.23;;;;;;;;;;4969686;28;20561;-81
2021/03/25 16:48:09;;;;;;;8.70;5.37;;;;;;;;;;4971173;28;20493;-81
2021/03/25 16:50:35;;;;;;;6.90;5.20;;;;;;;;;;4968688;28;20470;-82
2021/03/25 16:53:02;;;;;;;7.20;5.80;;;;;;;;;;4969375;28;20497;-81
2021/03/25 16:55:28;;;;;;;6.13;4.57;;;;;;;;;;4969490;28;20442;-81
2021/03/25 16:57:54;;;;;;;8.13;5.63;;;;;;;;;;4969759;28;20786;-81
2021/03/25 17:00:26;;;;;;;4.53;4.00;;;;;;;;;;4967796;28;20449;-81
2021/03/25 17:02:54;;;;;;;5.30;4.50;;;;;;;;;;4968965;28;20508;-82
2021/03/25 17:05:20;;;;;;;8.83;4.50;;;;;;;;;;4967318;28;20861;-79
2021/03/25 17:07:46;;;;;;;5.97;5.00;;;;;;;;;;4968811;28;20447;-79
2021/03/25 17:10:12;;;;;;;7.37;4.97;;;;;;;;;;4969447;28;20454;-82
2021/03/25 17:12:38;;;;;;;6.83;4.83;;;;;;;;;;4969431;28;20498;-83
2021/03/25 17:15:05;;;;;;;7.47;4.80;;;;;;;;;;4967967;28;20451;-81
2021/03/25 17:17:31;;;;;;;6.73;4.43;;;;;;;;;;4952115;28;20987;-81
2021/03/25 17:19:57;;;;;;;9.17;4.73;;;;;;;;;;4968641;28;20453;-81
2021/03/25 17:22:23;;;;;;;10.80;4.70;;;;;;;;;;4969741;28;20488;-82
2021/03/25 17:24:49;;;;;;;6.30;5.13;;;;;;;;;;4968771;28;20695;-81
2021/03/25 17:27:15;;;;;;;6.70;5.40;;;;;;;;;;4968999;28;20537;-82
2021/03/25 17:29:41;;;;;;;6.27;5.17;;;;;;;;;;4971417;28;20442;-86
2021/03/25 17:32:07;;;;;;;5.90;4.73;;;;;;;;;;4968923;28;20442;-80
2021/03/25 17:34:33;;;;;;;6.43;5.10;;;;;;;;;;4968044;28;20481;-82
2021/03/25 17:36:59;;;;;;;6.67;5.30;;;;;;;;;;4968744;28;20448;-79
2021/03/25 17:39:25;;;;;;;7.30;5.43;;;;;;;;;;4969397;28;20449;-82
2021/03/25 17:41:51;;;;;;;10.23;5.63;;;;;;;;;;4968546;28;20862;-82
2021/03/25 17:44:17;;;;;;;10.33;5.37;;;;;;;;;;4967832;28;20578;-83
2021/03/25 17:46:44;;;;;;;7.53;5.90;;;;;;;;;;4968706;28;20459;-82
2021/03/25 17:49:10;;;;;;;9.93;6.80;;;;;;;;;;4968654;28;20485;-82
2021/03/25 17:51:36;;;;;;;10.80;7.17;;;;;;;;;;4968768;28;20855;-81
2021/03/25 17:54:02;;;;;;;6.57;5.97;;;;;;;;;;4969419;28;20450;-79
2021/03/25 17:56:28;;;;;;;12.53;7.33;;;;;;;;;;4968064;28;20438;-82
2021/03/25 17:58:55;;;;;;;11.63;6.20;;;;;;;;;;4968496;28;20454;-82
2021/03/25 18:01:22;;;;;;;8.37;6.40;;;;;;;;;;4969305;28;20430;-83
2021/03/25 18:03:48;;;;;;;11.40;7.67;;;;;;;;;;4972129;28;20529;-82
2021/03/25 18:06:14;;;;;;;7.80;6.73;;;;;;;;;;4971839;28;20450;-81
2021/03/25 18:08:40;;;;;;;9.60;7.17;;;;;;;;;;4972338;28;20558;-82
2021/03/25 18:11:06;;;;;;;10.07;7.57;;;;;;;;;;4972649;28;20461;-84
2021/03/25 18:13:34;;;;;;;11.80;8.03;;;;;;;;;;4972529;28;20477;-81
2021/03/25 18:16:02;;;;;;;17.47;9.00;;;;;;;;;;4971291;28;20454;-81
2021/03/25 18:18:29;;;;;;;23.50;9.77;;;;;;;;;;4970829;28;20442;-82
2021/03/25 18:20:55;;;;;;;15.40;10.17;;;;;;;;;;4971227;28;20450;-82
2021/03/25 18:23:21;;;;;;;13.83;9.37;;;;;;;;;;4968573;28;20585;-82
2021/03/25 18:25:48;;;;;;;11.60;9.23;;;;;;;;;;4969239;28;20458;-80
2021/03/25 18:28:16;;;;;;;12.43;10.33;;;;;;;;;;4968534;28;20466;-79
2021/03/25 18:30:42;;;;;;;15.30;9.80;;;;;;;;;;4973003;28;20473;-80
2021/03/25 18:33:09;;;;;;;15.13;8.90;;;;;;;;;;4954916;28;20585;-80
2021/03/25 18:35:38;;;;;;;12.73;9.00;;;;;;;;;;4972255;28;20454;-78
2021/03/25 18:38:04;;;;;;;10.63;8.07;;;;;;;;;;4974193;28;20594;-80
2021/03/25 18:40:30;;;;;;;13.03;9.60;;;;;;;;;;4974958;28;20781;-80
2021/03/25 18:42:56;;;;;;;14.37;10.17;;;;;;;;;;4974773;28;20427;-80
2021/03/25 18:45:24;;;;;;;12.83;9.17;;;;;;;;;;4975431;28;20856;-79
2021/03/25 18:47:50;;;;;;;11.37;9.27;;;;;;;;;;4974334;28;20418;-76
2021/03/25 18:53:20;;;;;;;15.80;10.07;;;;;;;;;;4974028;28;21056;-80
2021/03/25 18:55:47;;;;;;;21.47;10.40;;;;;;;;;;4976581;28;20483;-83
2021/03/25 18:58:14;;;;;;;13.50;9.73;;;;;;;;;;4976067;28;20402;-78
2021/03/25 19:00:42;;;;;;;14.10;9.37;;;;;;;;;;4976161;28;20640;-84
2021/03/25 19:03:10;;;;;;;11.47;9.80;;;;;;;;;;4975463;28;20454;-80
2021/03/25 19:08:41;;;;;;;11.77;9.13;;;;;;;;;;4973814;28;20528;-80
2021/03/25 19:11:16;;;;;;;13.43;9.53;;;;;;;;;;4974599;28;20490;-79
2021/03/25 19:13:42;;;;;;;13.00;10.43;;;;;;;;;;4974294;28;20824;-78
2021/03/25 19:16:08;;;;;;;12.27;9.33;;;;;;;;;;4973981;28;20478;-77
2021/03/25 19:18:34;;;;;;;14.40;8.47;;;;;;;;;;4974155;28;20501;-79
2021/03/25 19:24:04;;;;;;;12.80;9.63;;;;;;;;;;4975025;28;20501;-78
2021/03/25 19:26:30;;;;;;;14.67;10.10;;;;;;;;;;4975239;28;20525;-81
2021/03/25 19:28:56;;;;;;;10.57;8.70;;;;;;;;;;4957558;28;20940;-77
2021/03/25 19:31:22;;;;;;;14.30;8.93;;;;;;;;;;4973713;28;20778;-78
2021/03/25 19:33:48;;;;;;;13.60;9.07;;;;;;;;;;4973271;28;20902;-77
2021/03/25 19:39:18;;;;;;;13.23;9.13;;;;;;;;;;4974237;28;20417;-77
2021/03/25 19:41:44;;;;;;;11.00;8.93;;;;;;;;;;4973310;28;20509;-77
2021/03/25 19:44:10;;;;;;;11.33;8.90;;;;;;;;;;4974066;28;20554;-79
2021/03/25 19:46:36;;;;;;;16.53;8.97;;;;;;;;;;4973947;28;21011;-78
2021/03/25 19:49:03;;;;;;;14.23;8.97;;;;;;;;;;4973936;28;20825;-79
2021/03/25 19:54:32;;;;;;;11.20;8.83;;;;;;;;;;4972447;28;20471;-78
2021/03/25 19:56:58;;;;;;;13.90;11.33;;;;;;;;;;4972448;28;20436;-79
2021/03/25 19:59:26;;;;;;;15.60;9.87;;;;;;;;;;4972635;28;20454;-77
2021/03/25 20:01:52;;;;;;;16.47;10.50;;;;;;;;;;4972667;28;20747;-78
2021/03/25 20:04:18;;;;;;;16.07;11.23;;;;;;;;;;4972786;28;20472;-77
2021/03/25 20:09:48;;;;;;;12.20;10.27;;;;;;;;;;4973076;28;20421;-78
2021/03/25 20:12:14;;;;;;;15.73;11.37;;;;;;;;;;4973192;28;20509;-78
2021/03/25 20:14:42;;;;;;;10.87;9.67;;;;;;;;;;4972836;28;20418;-77
2021/03/25 20:17:08;;;;;;;14.70;11.27;;;;;;;;;;4972687;28;20459;-78
2021/03/25 20:19:34;;;;;;;9.60;7.90;;;;;;;;;;4972819;28;20891;-78
2021/03/25 20:25:05;;;;;;;11.57;9.60;;;;;;;;;;4972059;28;20606;-78
2021/03/25 20:27:31;;;;;;;10.23;9.20;;;;;;;;;;4972176;28;20435;-77
2021/03/25 20:29:57;;;;;;;11.53;9.50;;;;;;;;;;4972381;28;20480;-75
2021/03/25 20:32:23;;;;;;;15.17;10.33;;;;;;;;;;4972129;28;20414;-76
2021/03/25 20:34:49;;;;;;;13.60;9.77;;;;;;;;;;4971967;28;20830;-78
2021/03/25 20:40:20;;;;;;;13.60;8.87;;;;;;;;;;4972193;28;20513;-78
2021/03/25 20:42:46;;;;;;;11.97;9.00;;;;;;;;;;4971965;28;20430;-78